sensor_id;sensor_type;location;lat;lon;timestamp;P1;durP1;ratioP1;P2;durP2;ratioP2
18899;SDS011;9582;52.018;6.306;2023-07-31T00:01:17;3.78;;;2.88;;
18899;SDS011;9582;52.018;6.306;2023-07-31T00:03:43;4.05;;;3.13;;
18899;SDS011;9582;52.018;6.306;2023-07-31T00:06:11;4.47;;;2.90;;
18899;SDS011;9582;52.018;6.306;2023-07-31T00:08:38;3.45;;;2.60;;
18899;SDS011;9582;52.018;6.306;2023-07-31T00:11:06;3.75;;;2.92;;
18899;SDS011;9582;52.018;6.306;2023-07-31T00:13:32;4.85;;;2.80;;
18899;SDS011;9582;52.018;6.306;2023-07-31T00:15:59;5.50;;;2.70;;
18899;SDS011;9582;52.018;6.306;2023-07-31T00:18:25;3.50;;;2.95;;
18899;SDS011;9582;52.018;6.306;2023-07-31T00:20:52;3.05;;;2.40;;
18899;SDS011;9582;52.018;6.306;2023-07-31T00:23:18;4.40;;;2.88;;
18899;SDS011;9582;52.018;6.306;2023-07-31T00:25:45;4.38;;;2.63;;
18899;SDS011;9582;52.018;6.306;2023-07-31T00:28:12;3.10;;;2.63;;
18899;SDS011;9582;52.018;6.306;2023-07-31T00:30:39;2.78;;;2.00;;
18899;SDS011;9582;52.018;6.306;2023-07-31T00:33:06;4.97;;;1.98;;
18899;SDS011;9582;52.018;6.306;2023-07-31T00:35:32;3.42;;;2.10;;
18899;SDS011;9582;52.018;6.306;2023-07-31T00:37:59;2.95;;;1.73;;
18899;SDS011;9582;52.018;6.306;2023-07-31T00:40:25;2.10;;;1.70;;
18899;SDS011;9582;52.018;6.306;2023-07-31T00:42:52;2.90;;;2.00;;
18899;SDS011;9582;52.018;6.306;2023-07-31T00:45:19;1.63;;;1.30;;
18899;SDS011;9582;52.018;6.306;2023-07-31T00:47:48;2.80;;;1.65;;
18899;SDS011;9582;52.018;6.306;2023-07-31T00:50:14;2.38;;;1.73;;
18899;SDS011;9582;52.018;6.306;2023-07-31T00:52:41;2.25;;;1.70;;
18899;SDS011;9582;52.018;6.306;2023-07-31T00:55:08;1.63;;;1.52;;
18899;SDS011;9582;52.018;6.306;2023-07-31T00:57:34;2.42;;;1.77;;
18899;SDS011;9582;52.018;6.306;2023-07-31T01:00:04;2.08;;;1.75;;
18899;SDS011;9582;52.018;6.306;2023-07-31T01:02:33;2.80;;;1.90;;
18899;SDS011;9582;52.018;6.306;2023-07-31T01:05:00;3.72;;;1.90;;
18899;SDS011;9582;52.018;6.306;2023-07-31T01:07:30;3.63;;;1.98;;
18899;SDS011;9582;52.018;6.306;2023-07-31T01:10:07;5.13;;;2.22;;
18899;SDS011;9582;52.018;6.306;2023-07-31T01:12:37;4.30;;;2.92;;
18899;SDS011;9582;52.018;6.306;2023-07-31T01:15:04;9.70;;;3.95;;
18899;SDS011;9582;52.018;6.306;2023-07-31T01:17:37;10.30;;;4.22;;
18899;SDS011;9582;52.018;6.306;2023-07-31T01:20:04;9.75;;;5.10;;
18899;SDS011;9582;52.018;6.306;2023-07-31T01:25:48;16.02;;;6.70;;
18899;SDS011;9582;52.018;6.306;2023-07-31T01:28:23;17.13;;;7.00;;
18899;SDS011;9582;52.018;6.306;2023-07-31T01:31:06;13.38;;;6.65;;
18899;SDS011;9582;52.018;6.306;2023-07-31T01:33:35;16.35;;;7.65;;
18899;SDS011;9582;52.018;6.306;2023-07-31T01:36:03;20.50;;;8.65;;
18899;SDS011;9582;52.018;6.306;2023-07-31T01:38:30;19.98;;;8.05;;
18899;SDS011;9582;52.018;6.306;2023-07-31T01:40:58;22.20;;;8.75;;
18899;SDS011;9582;52.018;6.306;2023-07-31T01:43:24;17.05;;;8.77;;
18899;SDS011;9582;52.018;6.306;2023-07-31T01:45:51;19.42;;;8.98;;
18899;SDS011;9582;52.018;6.306;2023-07-31T01:48:17;25.05;;;9.32;;
18899;SDS011;9582;52.018;6.306;2023-07-31T01:50:44;20.17;;;9.52;;
18899;SDS011;9582;52.018;6.306;2023-07-31T01:53:11;18.30;;;8.63;;
18899;SDS011;9582;52.018;6.306;2023-07-31T01:55:38;24.38;;;10.27;;
18899;SDS011;9582;52.018;6.306;2023-07-31T01:58:07;28.35;;;10.27;;
18899;SDS011;9582;52.018;6.306;2023-07-31T02:00:34;23.17;;;9.32;;
18899;SDS011;9582;52.018;6.306;2023-07-31T02:03:00;19.75;;;8.90;;
18899;SDS011;9582;52.018;6.306;2023-07-31T02:05:27;21.42;;;9.10;;
18899;SDS011;9582;52.018;6.306;2023-07-31T02:07:53;20.27;;;9.13;;
18899;SDS011;9582;52.018;6.306;2023-07-31T02:10:19;20.92;;;8.68;;
18899;SDS011;9582;52.018;6.306;2023-07-31T02:12:46;24.10;;;10.27;;
18899;SDS011;9582;52.018;6.306;2023-07-31T02:15:14;25.23;;;10.40;;
18899;SDS011;9582;52.018;6.306;2023-07-31T02:17:40;18.77;;;9.38;;
18899;SDS011;9582;52.018;6.306;2023-07-31T02:20:07;22.17;;;9.13;;
18899;SDS011;9582;52.018;6.306;2023-07-31T02:22:34;24.48;;;10.32;;
18899;SDS011;9582;52.018;6.306;2023-07-31T02:25:01;17.38;;;8.52;;
18899;SDS011;9582;52.018;6.306;2023-07-31T02:27:28;22.85;;;8.98;;
18899;SDS011;9582;52.018;6.306;2023-07-31T02:29:54;20.45;;;9.50;;
18899;SDS011;9582;52.018;6.306;2023-07-31T02:32:22;21.27;;;9.38;;
18899;SDS011;9582;52.018;6.306;2023-07-31T02:34:49;19.20;;;9.07;;
18899;SDS011;9582;52.018;6.306;2023-07-31T02:37:16;18.63;;;9.23;;
18899;SDS011;9582;52.018;6.306;2023-07-31T02:39:42;17.88;;;8.70;;
18899;SDS011;9582;52.018;6.306;2023-07-31T02:42:09;20.33;;;8.98;;
18899;SDS011;9582;52.018;6.306;2023-07-31T02:44:36;16.83;;;8.43;;
18899;SDS011;9582;52.018;6.306;2023-07-31T02:47:03;26.23;;;9.48;;
18899;SDS011;9582;52.018;6.306;2023-07-31T02:49:31;22.65;;;8.95;;
18899;SDS011;9582;52.018;6.306;2023-07-31T02:51:57;20.73;;;8.55;;
18899;SDS011;9582;52.018;6.306;2023-07-31T02:54:24;19.75;;;9.25;;
18899;SDS011;9582;52.018;6.306;2023-07-31T02:56:50;20.35;;;9.20;;
18899;SDS011;9582;52.018;6.306;2023-07-31T02:59:17;23.75;;;9.18;;
18899;SDS011;9582;52.018;6.306;2023-07-31T03:01:43;22.17;;;9.43;;
18899;SDS011;9582;52.018;6.306;2023-07-31T03:04:10;16.20;;;8.50;;
18899;SDS011;9582;52.018;6.306;2023-07-31T03:06:38;25.30;;;8.50;;
18899;SDS011;9582;52.018;6.306;2023-07-31T03:09:05;18.85;;;8.93;;
18899;SDS011;9582;52.018;6.306;2023-07-31T03:11:31;19.83;;;9.13;;
18899;SDS011;9582;52.018;6.306;2023-07-31T03:13:58;19.00;;;9.70;;
18899;SDS011;9582;52.018;6.306;2023-07-31T03:16:24;24.42;;;9.60;;
18899;SDS011;9582;52.018;6.306;2023-07-31T03:18:51;18.45;;;8.02;;
18899;SDS011;9582;52.018;6.306;2023-07-31T03:21:17;23.10;;;9.23;;
18899;SDS011;9582;52.018;6.306;2023-07-31T03:23:45;16.25;;;7.82;;
18899;SDS011;9582;52.018;6.306;2023-07-31T03:26:11;16.90;;;8.45;;
18899;SDS011;9582;52.018;6.306;2023-07-31T03:28:38;18.63;;;9.52;;
18899;SDS011;9582;52.018;6.306;2023-07-31T03:31:05;16.58;;;8.45;;
18899;SDS011;9582;52.018;6.306;2023-07-31T03:33:33;18.67;;;8.40;;
18899;SDS011;9582;52.018;6.306;2023-07-31T03:35:59;19.25;;;7.88;;
18899;SDS011;9582;52.018;6.306;2023-07-31T03:38:27;16.40;;;7.28;;
18899;SDS011;9582;52.018;6.306;2023-07-31T03:40:54;19.98;;;8.68;;
18899;SDS011;9582;52.018;6.306;2023-07-31T03:43:21;21.95;;;7.88;;
18899;SDS011;9582;52.018;6.306;2023-07-31T03:45:47;18.95;;;8.07;;
18899;SDS011;9582;52.018;6.306;2023-07-31T03:48:14;19.65;;;7.88;;
18899;SDS011;9582;52.018;6.306;2023-07-31T03:50:41;21.42;;;7.97;;
18899;SDS011;9582;52.018;6.306;2023-07-31T03:53:07;22.73;;;8.18;;
18899;SDS011;9582;52.018;6.306;2023-07-31T03:55:34;21.13;;;7.72;;
18899;SDS011;9582;52.018;6.306;2023-07-31T03:58:02;19.30;;;7.20;;
18899;SDS011;9582;52.018;6.306;2023-07-31T04:00:28;17.77;;;6.85;;
18899;SDS011;9582;52.018;6.306;2023-07-31T04:02:55;20.67;;;7.53;;
18899;SDS011;9582;52.018;6.306;2023-07-31T04:05:21;17.02;;;7.05;;
18899;SDS011;9582;52.018;6.306;2023-07-31T04:07:48;19.08;;;7.50;;
18899;SDS011;9582;52.018;6.306;2023-07-31T04:10:15;19.35;;;7.50;;
18899;SDS011;9582;52.018;6.306;2023-07-31T04:12:41;12.75;;;5.82;;
18899;SDS011;9582;52.018;6.306;2023-07-31T04:15:09;17.75;;;7.32;;
18899;SDS011;9582;52.018;6.306;2023-07-31T04:17:36;19.13;;;6.22;;
18899;SDS011;9582;52.018;6.306;2023-07-31T04:20:02;19.67;;;7.93;;
18899;SDS011;9582;52.018;6.306;2023-07-31T04:22:29;16.50;;;7.45;;
18899;SDS011;9582;52.018;6.306;2023-07-31T04:24:56;15.35;;;7.13;;
18899;SDS011;9582;52.018;6.306;2023-07-31T04:27:22;16.75;;;7.13;;
18899;SDS011;9582;52.018;6.306;2023-07-31T04:29:49;15.43;;;6.55;;
18899;SDS011;9582;52.018;6.306;2023-07-31T04:32:17;17.35;;;6.22;;
18899;SDS011;9582;52.018;6.306;2023-07-31T04:34:45;18.00;;;6.57;;
18899;SDS011;9582;52.018;6.306;2023-07-31T04:37:11;16.48;;;6.55;;
18899;SDS011;9582;52.018;6.306;2023-07-31T04:39:39;15.80;;;6.25;;
18899;SDS011;9582;52.018;6.306;2023-07-31T04:42:05;15.45;;;6.60;;
18899;SDS011;9582;52.018;6.306;2023-07-31T04:44:32;17.60;;;6.38;;
18899;SDS011;9582;52.018;6.306;2023-07-31T04:46:58;22.55;;;7.47;;
18899;SDS011;9582;52.018;6.306;2023-07-31T04:49:26;14.13;;;6.15;;
18899;SDS011;9582;52.018;6.306;2023-07-31T04:51:53;14.95;;;6.32;;
18899;SDS011;9582;52.018;6.306;2023-07-31T04:54:19;16.65;;;6.18;;
18899;SDS011;9582;52.018;6.306;2023-07-31T04:56:46;15.40;;;6.20;;
18899;SDS011;9582;52.018;6.306;2023-07-31T04:59:13;16.80;;;7.43;;
18899;SDS011;9582;52.018;6.306;2023-07-31T05:01:39;16.48;;;6.97;;
18899;SDS011;9582;52.018;6.306;2023-07-31T05:04:06;15.95;;;7.40;;
18899;SDS011;9582;52.018;6.306;2023-07-31T05:06:34;19.25;;;6.65;;
18899;SDS011;9582;52.018;6.306;2023-07-31T05:09:00;14.63;;;6.63;;
18899;SDS011;9582;52.018;6.306;2023-07-31T05:11:27;14.63;;;6.60;;
18899;SDS011;9582;52.018;6.306;2023-07-31T05:13:53;19.63;;;7.07;;
18899;SDS011;9582;52.018;6.306;2023-07-31T05:16:19;13.75;;;7.00;;
18899;SDS011;9582;52.018;6.306;2023-07-31T05:18:48;14.32;;;6.28;;
18899;SDS011;9582;52.018;6.306;2023-07-31T05:21:14;17.00;;;6.75;;
18899;SDS011;9582;52.018;6.306;2023-07-31T05:23:42;13.88;;;6.45;;
18899;SDS011;9582;52.018;6.306;2023-07-31T05:26:08;19.65;;;6.95;;
18899;SDS011;9582;52.018;6.306;2023-07-31T05:28:35;16.88;;;6.97;;
18899;SDS011;9582;52.018;6.306;2023-07-31T05:31:02;15.48;;;6.72;;
18899;SDS011;9582;52.018;6.306;2023-07-31T05:33:30;20.33;;;6.45;;
18899;SDS011;9582;52.018;6.306;2023-07-31T05:35:56;14.00;;;6.00;;
18899;SDS011;9582;52.018;6.306;2023-07-31T05:38:23;12.43;;;5.30;;
18899;SDS011;9582;52.018;6.306;2023-07-31T05:40:51;14.30;;;6.32;;
18899;SDS011;9582;52.018;6.306;2023-07-31T05:43:17;12.38;;;5.90;;
18899;SDS011;9582;52.018;6.306;2023-07-31T05:45:44;16.85;;;6.20;;
18899;SDS011;9582;52.018;6.306;2023-07-31T05:48:10;14.98;;;6.10;;
18899;SDS011;9582;52.018;6.306;2023-07-31T05:50:37;12.30;;;5.70;;
18899;SDS011;9582;52.018;6.306;2023-07-31T05:53:05;11.77;;;5.30;;
18899;SDS011;9582;52.018;6.306;2023-07-31T05:55:31;17.30;;;6.25;;
18899;SDS011;9582;52.018;6.306;2023-07-31T05:57:59;14.93;;;5.13;;
18899;SDS011;9582;52.018;6.306;2023-07-31T06:00:26;11.98;;;5.63;;
18899;SDS011;9582;52.018;6.306;2023-07-31T06:02:52;10.88;;;5.32;;
18899;SDS011;9582;52.018;6.306;2023-07-31T06:05:19;14.65;;;6.28;;
18899;SDS011;9582;52.018;6.306;2023-07-31T06:07:46;13.23;;;5.70;;
18899;SDS011;9582;52.018;6.306;2023-07-31T06:10:12;15.90;;;6.10;;
18899;SDS011;9582;52.018;6.306;2023-07-31T06:12:39;12.57;;;6.45;;
18899;SDS011;9582;52.018;6.306;2023-07-31T06:15:07;12.43;;;5.85;;
18899;SDS011;9582;52.018;6.306;2023-07-31T06:17:34;16.55;;;6.28;;
18899;SDS011;9582;52.018;6.306;2023-07-31T06:20:01;14.05;;;5.57;;
18899;SDS011;9582;52.018;6.306;2023-07-31T06:22:28;13.88;;;5.60;;
18899;SDS011;9582;52.018;6.306;2023-07-31T06:24:55;13.98;;;6.00;;
18899;SDS011;9582;52.018;6.306;2023-07-31T06:27:21;13.35;;;6.40;;
18899;SDS011;9582;52.018;6.306;2023-07-31T06:29:49;13.90;;;5.65;;
18899;SDS011;9582;52.018;6.306;2023-07-31T06:32:17;14.98;;;6.65;;
18899;SDS011;9582;52.018;6.306;2023-07-31T06:34:43;15.65;;;6.55;;
18899;SDS011;9582;52.018;6.306;2023-07-31T06:37:10;11.63;;;5.65;;
18899;SDS011;9582;52.018;6.306;2023-07-31T06:39:36;13.63;;;5.68;;
18899;SDS011;9582;52.018;6.306;2023-07-31T06:42:03;12.65;;;5.93;;
18899;SDS011;9582;52.018;6.306;2023-07-31T06:44:30;16.58;;;6.40;;
18899;SDS011;9582;52.018;6.306;2023-07-31T06:46:56;16.92;;;6.18;;
18899;SDS011;9582;52.018;6.306;2023-07-31T06:49:24;11.88;;;5.88;;
18899;SDS011;9582;52.018;6.306;2023-07-31T06:51:51;11.88;;;5.05;;
18899;SDS011;9582;52.018;6.306;2023-07-31T06:54:17;10.80;;;5.10;;
18899;SDS011;9582;52.018;6.306;2023-07-31T06:56:43;12.23;;;5.97;;
18899;SDS011;9582;52.018;6.306;2023-07-31T06:59:10;10.43;;;5.13;;
18899;SDS011;9582;52.018;6.306;2023-07-31T07:01:36;11.05;;;5.30;;
18899;SDS011;9582;52.018;6.306;2023-07-31T07:04:03;9.63;;;5.22;;
18899;SDS011;9582;52.018;6.306;2023-07-31T07:06:31;9.75;;;4.70;;
18899;SDS011;9582;52.018;6.306;2023-07-31T07:08:58;9.18;;;4.45;;
18899;SDS011;9582;52.018;6.306;2023-07-31T07:11:24;7.97;;;3.92;;
18899;SDS011;9582;52.018;6.306;2023-07-31T07:13:51;10.48;;;4.18;;
18899;SDS011;9582;52.018;6.306;2023-07-31T07:16:17;8.18;;;3.92;;
18899;SDS011;9582;52.018;6.306;2023-07-31T07:18:44;5.55;;;3.60;;
18899;SDS011;9582;52.018;6.306;2023-07-31T07:21:10;8.05;;;3.75;;
18899;SDS011;9582;52.018;6.306;2023-07-31T07:23:42;5.28;;;3.38;;
18899;SDS011;9582;52.018;6.306;2023-07-31T07:26:08;7.45;;;3.30;;
18899;SDS011;9582;52.018;6.306;2023-07-31T07:28:35;3.95;;;2.90;;
18899;SDS011;9582;52.018;6.306;2023-07-31T07:31:02;4.60;;;2.60;;
18899;SDS011;9582;52.018;6.306;2023-07-31T07:33:28;6.65;;;3.08;;
18899;SDS011;9582;52.018;6.306;2023-07-31T07:35:55;5.40;;;2.25;;
18899;SDS011;9582;52.018;6.306;2023-07-31T07:38:21;4.15;;;2.47;;
18899;SDS011;9582;52.018;6.306;2023-07-31T07:40:49;5.10;;;2.50;;
18899;SDS011;9582;52.018;6.306;2023-07-31T07:43:18;4.18;;;2.72;;
18899;SDS011;9582;52.018;6.306;2023-07-31T07:45:45;3.45;;;2.00;;
18899;SDS011;9582;52.018;6.306;2023-07-31T07:48:11;3.83;;;2.28;;
18899;SDS011;9582;52.018;6.306;2023-07-31T07:50:38;3.15;;;1.98;;
18899;SDS011;9582;52.018;6.306;2023-07-31T07:53:04;3.47;;;2.10;;
18899;SDS011;9582;52.018;6.306;2023-07-31T07:55:31;2.15;;;1.60;;
18899;SDS011;9582;52.018;6.306;2023-07-31T07:57:59;1.88;;;1.63;;
18899;SDS011;9582;52.018;6.306;2023-07-31T08:00:25;3.38;;;1.88;;
18899;SDS011;9582;52.018;6.306;2023-07-31T08:02:52;3.00;;;1.60;;
18899;SDS011;9582;52.018;6.306;2023-07-31T08:05:18;2.20;;;1.75;;
18899;SDS011;9582;52.018;6.306;2023-07-31T08:07:45;2.92;;;1.73;;
18899;SDS011;9582;52.018;6.306;2023-07-31T08:10:11;3.17;;;1.90;;
18899;SDS011;9582;52.018;6.306;2023-07-31T08:12:37;3.55;;;2.15;;
18899;SDS011;9582;52.018;6.306;2023-07-31T08:15:06;1.85;;;1.73;;
18899;SDS011;9582;52.018;6.306;2023-07-31T08:17:33;2.10;;;1.83;;
18899;SDS011;9582;52.018;6.306;2023-07-31T08:20:00;3.05;;;1.75;;
18899;SDS011;9582;52.018;6.306;2023-07-31T08:22:26;2.53;;;1.90;;
18899;SDS011;9582;52.018;6.306;2023-07-31T08:24:53;3.35;;;2.17;;
18899;SDS011;9582;52.018;6.306;2023-07-31T08:27:19;1.50;;;1.40;;
18899;SDS011;9582;52.018;6.306;2023-07-31T08:29:46;2.10;;;1.67;;
18899;SDS011;9582;52.018;6.306;2023-07-31T08:32:14;3.00;;;2.15;;
18899;SDS011;9582;52.018;6.306;2023-07-31T08:34:40;2.03;;;1.65;;
18899;SDS011;9582;52.018;6.306;2023-07-31T08:37:07;2.20;;;2.00;;
18899;SDS011;9582;52.018;6.306;2023-07-31T08:39:33;2.20;;;2.00;;
18899;SDS011;9582;52.018;6.306;2023-07-31T08:42:00;2.38;;;2.10;;
18899;SDS011;9582;52.018;6.306;2023-07-31T08:44:26;2.42;;;1.85;;
18899;SDS011;9582;52.018;6.306;2023-07-31T08:46:53;4.05;;;2.25;;
18899;SDS011;9582;52.018;6.306;2023-07-31T08:49:22;2.78;;;2.05;;
18899;SDS011;9582;52.018;6.306;2023-07-31T08:51:49;3.40;;;2.28;;
18899;SDS011;9582;52.018;6.306;2023-07-31T08:54:16;2.55;;;2.10;;
18899;SDS011;9582;52.018;6.306;2023-07-31T08:56:43;2.33;;;2.13;;
18899;SDS011;9582;52.018;6.306;2023-07-31T08:59:10;3.45;;;2.40;;
18899;SDS011;9582;52.018;6.306;2023-07-31T09:01:43;3.08;;;2.50;;
18899;SDS011;9582;52.018;6.306;2023-07-31T09:04:14;3.47;;;2.40;;
18899;SDS011;9582;52.018;6.306;2023-07-31T09:06:45;2.50;;;2.30;;
18899;SDS011;9582;52.018;6.306;2023-07-31T09:09:13;2.53;;;2.33;;
18899;SDS011;9582;52.018;6.306;2023-07-31T09:11:40;3.67;;;2.80;;
18899;SDS011;9582;52.018;6.306;2023-07-31T09:14:08;3.22;;;2.70;;
18899;SDS011;9582;52.018;6.306;2023-07-31T09:16:35;3.15;;;2.85;;
18899;SDS011;9582;52.018;6.306;2023-07-31T09:19:01;3.45;;;2.63;;
18899;SDS011;9582;52.018;6.306;2023-07-31T09:21:28;2.45;;;2.25;;
18899;SDS011;9582;52.018;6.306;2023-07-31T09:23:56;2.92;;;2.60;;
18899;SDS011;9582;52.018;6.306;2023-07-31T09:26:30;3.13;;;2.83;;
18899;SDS011;9582;52.018;6.306;2023-07-31T09:28:57;2.78;;;2.33;;
18899;SDS011;9582;52.018;6.306;2023-07-31T09:31:33;3.53;;;2.60;;
18899;SDS011;9582;52.018;6.306;2023-07-31T09:34:05;3.00;;;2.70;;
18899;SDS011;9582;52.018;6.306;2023-07-31T09:36:32;3.53;;;2.90;;
18899;SDS011;9582;52.018;6.306;2023-07-31T09:39:02;4.63;;;3.05;;
18899;SDS011;9582;52.018;6.306;2023-07-31T09:41:30;3.40;;;2.80;;
18899;SDS011;9582;52.018;6.306;2023-07-31T09:43:56;4.90;;;3.20;;
18899;SDS011;9582;52.018;6.306;2023-07-31T09:46:23;2.97;;;2.70;;
18899;SDS011;9582;52.018;6.306;2023-07-31T09:48:53;2.95;;;2.42;;
18899;SDS011;9582;52.018;6.306;2023-07-31T09:51:30;3.67;;;2.70;;
18899;SDS011;9582;52.018;6.306;2023-07-31T09:53:57;4.53;;;3.00;;
18899;SDS011;9582;52.018;6.306;2023-07-31T09:56:24;4.35;;;3.17;;
18899;SDS011;9582;52.018;6.306;2023-07-31T09:58:52;3.65;;;3.10;;
18899;SDS011;9582;52.018;6.306;2023-07-31T10:01:20;3.88;;;3.40;;
18899;SDS011;9582;52.018;6.306;2023-07-31T10:03:46;4.43;;;3.17;;
18899;SDS011;9582;52.018;6.306;2023-07-31T10:06:13;3.53;;;3.22;;
18899;SDS011;9582;52.018;6.306;2023-07-31T10:08:44;5.18;;;3.90;;
18899;SDS011;9582;52.018;6.306;2023-07-31T10:11:13;4.28;;;3.78;;
18899;SDS011;9582;52.018;6.306;2023-07-31T10:13:42;4.47;;;4.07;;
18899;SDS011;9582;52.018;6.306;2023-07-31T10:16:10;6.03;;;3.90;;
18899;SDS011;9582;52.018;6.306;2023-07-31T10:18:38;5.50;;;4.35;;
18899;SDS011;9582;52.018;6.306;2023-07-31T10:21:05;6.18;;;5.00;;
18899;SDS011;9582;52.018;6.306;2023-07-31T10:23:33;5.80;;;4.65;;
18899;SDS011;9582;52.018;6.306;2023-07-31T10:26:00;6.55;;;5.90;;
18899;SDS011;9582;52.018;6.306;2023-07-31T10:28:28;8.27;;;5.97;;
18899;SDS011;9582;52.018;6.306;2023-07-31T10:30:57;7.05;;;5.60;;
18899;SDS011;9582;52.018;6.306;2023-07-31T10:33:23;7.65;;;6.88;;
18899;SDS011;9582;52.018;6.306;2023-07-31T10:35:50;7.82;;;6.55;;
18899;SDS011;9582;52.018;6.306;2023-07-31T10:38:41;8.48;;;7.00;;
18899;SDS011;9582;52.018;6.306;2023-07-31T10:41:08;8.10;;;6.65;;
18899;SDS011;9582;52.018;6.306;2023-07-31T10:43:35;10.10;;;6.95;;
18899;SDS011;9582;52.018;6.306;2023-07-31T10:46:07;7.65;;;6.88;;
18899;SDS011;9582;52.018;6.306;2023-07-31T10:48:34;8.70;;;7.18;;
18899;SDS011;9582;52.018;6.306;2023-07-31T10:51:06;8.88;;;6.75;;
18899;SDS011;9582;52.018;6.306;2023-07-31T10:53:34;8.60;;;7.00;;
18899;SDS011;9582;52.018;6.306;2023-07-31T10:56:02;10.93;;;8.05;;
18899;SDS011;9582;52.018;6.306;2023-07-31T10:58:29;12.20;;;8.07;;
18899;SDS011;9582;52.018;6.306;2023-07-31T11:00:57;10.40;;;8.13;;
18899;SDS011;9582;52.018;6.306;2023-07-31T11:03:26;13.57;;;8.88;;
18899;SDS011;9582;52.018;6.306;2023-07-31T11:05:56;11.20;;;8.20;;
18899;SDS011;9582;52.018;6.306;2023-07-31T11:08:28;11.07;;;7.38;;
18899;SDS011;9582;52.018;6.306;2023-07-31T11:11:04;11.25;;;7.57;;
18899;SDS011;9582;52.018;6.306;2023-07-31T11:13:33;11.35;;;7.57;;
18899;SDS011;9582;52.018;6.306;2023-07-31T11:16:00;10.38;;;7.57;;
18899;SDS011;9582;52.018;6.306;2023-07-31T11:18:28;9.45;;;8.02;;
18899;SDS011;9582;52.018;6.306;2023-07-31T11:20:54;7.43;;;5.47;;
18899;SDS011;9582;52.018;6.306;2023-07-31T11:23:21;12.68;;;7.18;;
18899;SDS011;9582;52.018;6.306;2023-07-31T11:25:49;13.38;;;7.80;;
18899;SDS011;9582;52.018;6.306;2023-07-31T11:28:16;12.43;;;6.80;;
18899;SDS011;9582;52.018;6.306;2023-07-31T11:30:45;9.70;;;7.43;;
18899;SDS011;9582;52.018;6.306;2023-07-31T11:33:12;8.30;;;6.32;;
18899;SDS011;9582;52.018;6.306;2023-07-31T11:35:42;8.35;;;5.93;;
18899;SDS011;9582;52.018;6.306;2023-07-31T11:38:11;9.77;;;7.20;;
18899;SDS011;9582;52.018;6.306;2023-07-31T11:40:40;7.57;;;6.20;;
18899;SDS011;9582;52.018;6.306;2023-07-31T11:43:08;7.93;;;6.32;;
18899;SDS011;9582;52.018;6.306;2023-07-31T11:45:36;7.03;;;6.20;;
18899;SDS011;9582;52.018;6.306;2023-07-31T11:48:03;8.35;;;6.03;;
18899;SDS011;9582;52.018;6.306;2023-07-31T11:50:30;6.20;;;5.60;;
18899;SDS011;9582;52.018;6.306;2023-07-31T11:53:02;9.77;;;6.78;;
18899;SDS011;9582;52.018;6.306;2023-07-31T11:55:33;7.75;;;6.88;;
18899;SDS011;9582;52.018;6.306;2023-07-31T11:58:01;9.68;;;7.40;;
18899;SDS011;9582;52.018;6.306;2023-07-31T12:00:28;7.70;;;6.75;;
18899;SDS011;9582;52.018;6.306;2023-07-31T12:02:55;9.95;;;7.53;;
18899;SDS011;9582;52.018;6.306;2023-07-31T12:05:21;10.55;;;7.45;;
18899;SDS011;9582;52.018;6.306;2023-07-31T12:07:49;10.23;;;7.50;;
18899;SDS011;9582;52.018;6.306;2023-07-31T12:10:28;8.60;;;6.55;;
18899;SDS011;9582;52.018;6.306;2023-07-31T12:13:02;10.45;;;6.45;;
18899;SDS011;9582;52.018;6.306;2023-07-31T12:15:34;7.53;;;6.80;;
18899;SDS011;9582;52.018;6.306;2023-07-31T12:18:06;7.70;;;6.25;;
18899;SDS011;9582;52.018;6.306;2023-07-31T12:20:33;9.90;;;6.80;;
18899;SDS011;9582;52.018;6.306;2023-07-31T12:23:00;10.27;;;6.70;;
18899;SDS011;9582;52.018;6.306;2023-07-31T12:25:32;8.52;;;6.43;;
18899;SDS011;9582;52.018;6.306;2023-07-31T12:28:04;12.02;;;6.93;;
18899;SDS011;9582;52.018;6.306;2023-07-31T12:30:36;7.95;;;6.22;;
18899;SDS011;9582;52.018;6.306;2023-07-31T12:33:04;10.80;;;7.00;;
18899;SDS011;9582;52.018;6.306;2023-07-31T12:35:34;8.20;;;5.57;;
18899;SDS011;9582;52.018;6.306;2023-07-31T12:38:02;7.50;;;6.65;;
18899;SDS011;9582;52.018;6.306;2023-07-31T12:40:29;10.02;;;6.43;;
18899;SDS011;9582;52.018;6.306;2023-07-31T12:42:56;12.68;;;6.05;;
18899;SDS011;9582;52.018;6.306;2023-07-31T12:45:23;8.60;;;5.35;;
18899;SDS011;9582;52.018;6.306;2023-07-31T12:47:49;5.85;;;4.63;;
18899;SDS011;9582;52.018;6.306;2023-07-31T12:50:16;8.05;;;6.45;;
18899;SDS011;9582;52.018;6.306;2023-07-31T12:52:43;6.95;;;5.30;;
18899;SDS011;9582;52.018;6.306;2023-07-31T12:55:09;10.88;;;6.03;;
18899;SDS011;9582;52.018;6.306;2023-07-31T12:57:36;6.80;;;6.10;;
18899;SDS011;9582;52.018;6.306;2023-07-31T13:00:05;11.73;;;5.88;;
18899;SDS011;9582;52.018;6.306;2023-07-31T13:02:32;10.32;;;6.45;;
18899;SDS011;9582;52.018;6.306;2023-07-31T13:04:58;8.57;;;5.85;;
18899;SDS011;9582;52.018;6.306;2023-07-31T13:07:26;8.15;;;5.55;;
18899;SDS011;9582;52.018;6.306;2023-07-31T13:09:52;9.50;;;6.10;;
18899;SDS011;9582;52.018;6.306;2023-07-31T13:12:19;8.70;;;6.13;;
18899;SDS011;9582;52.018;6.306;2023-07-31T13:14:45;8.95;;;6.47;;
18899;SDS011;9582;52.018;6.306;2023-07-31T13:17:13;7.35;;;5.45;;
18899;SDS011;9582;52.018;6.306;2023-07-31T13:19:40;8.45;;;6.32;;
18899;SDS011;9582;52.018;6.306;2023-07-31T13:22:06;8.48;;;6.05;;
18899;SDS011;9582;52.018;6.306;2023-07-31T13:24:33;9.68;;;6.03;;
18899;SDS011;9582;52.018;6.306;2023-07-31T13:27:00;10.30;;;6.65;;
18899;SDS011;9582;52.018;6.306;2023-07-31T13:29:26;7.50;;;6.57;;
18899;SDS011;9582;52.018;6.306;2023-07-31T13:31:53;8.82;;;6.72;;
18899;SDS011;9582;52.018;6.306;2023-07-31T13:34:21;7.00;;;6.05;;
18899;SDS011;9582;52.018;6.306;2023-07-31T13:36:47;9.95;;;6.28;;
18899;SDS011;9582;52.018;6.306;2023-07-31T13:39:14;7.32;;;5.47;;
18899;SDS011;9582;52.018;6.306;2023-07-31T13:41:40;7.75;;;4.82;;
18899;SDS011;9582;52.018;6.306;2023-07-31T13:44:07;7.47;;;5.10;;
18899;SDS011;9582;52.018;6.306;2023-07-31T13:46:33;13.57;;;5.53;;
18899;SDS011;9582;52.018;6.306;2023-07-31T13:49:00;7.78;;;5.07;;
18899;SDS011;9582;52.018;6.306;2023-07-31T13:51:28;6.00;;;4.60;;
18899;SDS011;9582;52.018;6.306;2023-07-31T13:53:54;7.13;;;5.22;;
18899;SDS011;9582;52.018;6.306;2023-07-31T13:56:20;5.38;;;4.22;;
18899;SDS011;9582;52.018;6.306;2023-07-31T13:58:47;4.97;;;4.20;;
18899;SDS011;9582;52.018;6.306;2023-07-31T14:01:14;5.28;;;3.95;;
18899;SDS011;9582;52.018;6.306;2023-07-31T14:03:40;6.45;;;4.75;;
18899;SDS011;9582;52.018;6.306;2023-07-31T14:06:07;4.93;;;4.38;;
18899;SDS011;9582;52.018;6.306;2023-07-31T14:08:34;10.45;;;5.07;;
18899;SDS011;9582;52.018;6.306;2023-07-31T14:11:01;11.38;;;5.28;;
18899;SDS011;9582;52.018;6.306;2023-07-31T14:13:27;6.07;;;4.38;;
18899;SDS011;9582;52.018;6.306;2023-07-31T14:15:54;5.95;;;4.78;;
18899;SDS011;9582;52.018;6.306;2023-07-31T14:18:20;7.60;;;5.07;;
18899;SDS011;9582;52.018;6.306;2023-07-31T14:20:47;7.03;;;4.53;;
18899;SDS011;9582;52.018;6.306;2023-07-31T14:23:13;8.35;;;5.72;;
18899;SDS011;9582;52.018;6.306;2023-07-31T14:25:42;5.70;;;4.38;;
18899;SDS011;9582;52.018;6.306;2023-07-31T14:28:08;7.10;;;4.88;;
18899;SDS011;9582;52.018;6.306;2023-07-31T14:30:35;7.45;;;4.97;;
18899;SDS011;9582;52.018;6.306;2023-07-31T14:33:01;7.78;;;5.45;;
18899;SDS011;9582;52.018;6.306;2023-07-31T14:35:27;7.93;;;5.50;;
18899;SDS011;9582;52.018;6.306;2023-07-31T14:37:54;8.23;;;5.20;;
18899;SDS011;9582;52.018;6.306;2023-07-31T14:40:21;8.55;;;5.40;;
18899;SDS011;9582;52.018;6.306;2023-07-31T14:42:49;7.25;;;4.80;;
18899;SDS011;9582;52.018;6.306;2023-07-31T14:45:15;7.13;;;5.55;;
18899;SDS011;9582;52.018;6.306;2023-07-31T14:47:42;7.95;;;5.45;;
18899;SDS011;9582;52.018;6.306;2023-07-31T14:50:09;9.90;;;5.85;;
18899;SDS011;9582;52.018;6.306;2023-07-31T14:52:36;8.35;;;4.53;;
18899;SDS011;9582;52.018;6.306;2023-07-31T14:55:03;8.55;;;5.45;;
18899;SDS011;9582;52.018;6.306;2023-07-31T14:57:30;7.80;;;5.15;;
18899;SDS011;9582;52.018;6.306;2023-07-31T14:59:57;8.50;;;5.90;;